sensor_id;sensor_type;location;lat;lon;timestamp;P1;durP1;ratioP1;P2;durP2;ratioP2
35847;SDS011;22332;51.954;20.118;2022-09-27T00:02:40;9.40;;;7.00;;
35847;SDS011;22332;51.954;20.118;2022-09-27T00:05:46;12.10;;;8.00;;
35847;SDS011;22332;51.954;20.118;2022-09-27T00:08:52;12.60;;;8.50;;
35847;SDS011;22332;51.954;20.118;2022-09-27T00:11:58;11.70;;;8.80;;
35847;SDS011;22332;51.954;20.118;2022-09-27T00:15:05;15.10;;;10.60;;
35847;SDS011;22332;51.954;20.118;2022-09-27T00:18:12;18.10;;;12.50;;
35847;SDS011;22332;51.954;20.118;2022-09-27T00:21:18;18.80;;;11.70;;
35847;SDS011;22332;51.954;20.118;2022-09-27T00:24:24;16.50;;;11.60;;
35847;SDS011;22332;51.954;20.118;2022-09-27T00:27:29;16.80;;;12.10;;
35847;SDS011;22332;51.954;20.118;2022-09-27T00:30:35;19.90;;;13.40;;
35847;SDS011;22332;51.954;20.118;2022-09-27T00:33:45;23.40;;;14.80;;
35847;SDS011;22332;51.954;20.118;2022-09-27T00:36:52;22.60;;;16.30;;
35847;SDS011;22332;51.954;20.118;2022-09-27T00:39:58;20.60;;;14.50;;
35847;SDS011;22332;51.954;20.118;2022-09-27T00:43:04;18.20;;;13.00;;
35847;SDS011;22332;51.954;20.118;2022-09-27T00:46:19;21.60;;;15.50;;
35847;SDS011;22332;51.954;20.118;2022-09-27T00:49:30;22.50;;;16.70;;
35847;SDS011;22332;51.954;20.118;2022-09-27T00:52:41;28.60;;;19.40;;
35847;SDS011;22332;51.954;20.118;2022-09-27T00:55:52;28.80;;;19.80;;
35847;SDS011;22332;51.954;20.118;2022-09-27T00:59:02;28.30;;;18.30;;
35847;SDS011;22332;51.954;20.118;2022-09-27T01:02:13;24.80;;;17.40;;
35847;SDS011;22332;51.954;20.118;2022-09-27T01:05:19;26.30;;;19.00;;
35847;SDS011;22332;51.954;20.118;2022-09-27T01:08:27;28.50;;;19.90;;
35847;SDS011;22332;51.954;20.118;2022-09-27T01:11:37;26.90;;;20.30;;
35847;SDS011;22332;51.954;20.118;2022-09-27T01:14:52;28.90;;;21.60;;
35847;SDS011;22332;51.954;20.118;2022-09-27T01:18:16;26.50;;;18.50;;
35847;SDS011;22332;51.954;20.118;2022-09-27T01:21:38;25.50;;;18.00;;
35847;SDS011;22332;51.954;20.118;2022-09-27T01:25:03;23.20;;;18.20;;
35847;SDS011;22332;51.954;20.118;2022-09-27T01:28:28;24.80;;;19.40;;
35847;SDS011;22332;51.954;20.118;2022-09-27T01:31:48;27.00;;;19.20;;
35847;SDS011;22332;51.954;20.118;2022-09-27T01:35:01;29.30;;;21.90;;
35847;SDS011;22332;51.954;20.118;2022-09-27T01:38:20;25.70;;;18.90;;
35847;SDS011;22332;51.954;20.118;2022-09-27T01:41:35;26.70;;;19.00;;
35847;SDS011;22332;51.954;20.118;2022-09-27T01:44:49;26.30;;;19.80;;
35847;SDS011;22332;51.954;20.118;2022-09-27T01:48:01;30.00;;;22.20;;
35847;SDS011;22332;51.954;20.118;2022-09-27T01:51:31;31.90;;;23.30;;
35847;SDS011;22332;51.954;20.118;2022-09-27T01:58:13;27.40;;;19.60;;
35847;SDS011;22332;51.954;20.118;2022-09-27T02:01:24;28.70;;;20.80;;
35847;SDS011;22332;51.954;20.118;2022-09-27T02:04:32;26.10;;;18.30;;
35847;SDS011;22332;51.954;20.118;2022-09-27T02:07:47;30.50;;;22.50;;
35847;SDS011;22332;51.954;20.118;2022-09-27T02:14:07;25.70;;;18.80;;
35847;SDS011;22332;51.954;20.118;2022-09-27T02:17:27;30.30;;;21.80;;
35847;SDS011;22332;51.954;20.118;2022-09-27T02:20:43;27.10;;;19.20;;
35847;SDS011;22332;51.954;20.118;2022-09-27T02:23:54;30.10;;;19.80;;
35847;SDS011;22332;51.954;20.118;2022-09-27T02:27:08;29.30;;;20.90;;
35847;SDS011;22332;51.954;20.118;2022-09-27T02:30:20;26.30;;;18.90;;
35847;SDS011;22332;51.954;20.118;2022-09-27T02:33:31;29.60;;;20.50;;
35847;SDS011;22332;51.954;20.118;2022-09-27T02:36:45;31.20;;;22.90;;
35847;SDS011;22332;51.954;20.118;2022-09-27T02:39:55;28.60;;;19.70;;
35847;SDS011;22332;51.954;20.118;2022-09-27T02:43:01;29.70;;;20.50;;
35847;SDS011;22332;51.954;20.118;2022-09-27T02:46:13;29.00;;;21.10;;
35847;SDS011;22332;51.954;20.118;2022-09-27T02:49:41;30.40;;;21.50;;
35847;SDS011;22332;51.954;20.118;2022-09-27T02:53:15;31.40;;;22.70;;
35847;SDS011;22332;51.954;20.118;2022-09-27T02:56:33;32.40;;;23.10;;
35847;SDS011;22332;51.954;20.118;2022-09-27T03:00:07;30.50;;;20.40;;
35847;SDS011;22332;51.954;20.118;2022-09-27T03:03:26;26.50;;;19.00;;
35847;SDS011;22332;51.954;20.118;2022-09-27T03:06:42;31.90;;;21.70;;
35847;SDS011;22332;51.954;20.118;2022-09-27T03:09:50;32.10;;;22.70;;
35847;SDS011;22332;51.954;20.118;2022-09-27T03:12:57;28.60;;;21.10;;
35847;SDS011;22332;51.954;20.118;2022-09-27T03:16:03;32.40;;;23.10;;
35847;SDS011;22332;51.954;20.118;2022-09-27T03:19:24;28.80;;;19.60;;
35847;SDS011;22332;51.954;20.118;2022-09-27T03:22:48;29.10;;;18.60;;
35847;SDS011;22332;51.954;20.118;2022-09-27T03:25:53;26.10;;;18.60;;
35847;SDS011;22332;51.954;20.118;2022-09-27T03:28:59;30.40;;;21.20;;
35847;SDS011;22332;51.954;20.118;2022-09-27T03:32:05;30.00;;;21.20;;
35847;SDS011;22332;51.954;20.118;2022-09-27T03:35:42;29.40;;;20.20;;
35847;SDS011;22332;51.954;20.118;2022-09-27T03:38:50;25.40;;;16.30;;
35847;SDS011;22332;51.954;20.118;2022-09-27T03:41:56;22.60;;;16.30;;
35847;SDS011;22332;51.954;20.118;2022-09-27T03:45:01;26.20;;;19.00;;
35847;SDS011;22332;51.954;20.118;2022-09-27T03:48:08;26.60;;;18.80;;
35847;SDS011;22332;51.954;20.118;2022-09-27T03:51:13;23.50;;;16.80;;
35847;SDS011;22332;51.954;20.118;2022-09-27T03:54:19;26.20;;;19.10;;
35847;SDS011;22332;51.954;20.118;2022-09-27T03:57:26;21.20;;;14.80;;
35847;SDS011;22332;51.954;20.118;2022-09-27T04:00:36;24.10;;;15.50;;
35847;SDS011;22332;51.954;20.118;2022-09-27T04:03:42;21.40;;;15.80;;
35847;SDS011;22332;51.954;20.118;2022-09-27T04:07:08;22.80;;;15.70;;
35847;SDS011;22332;51.954;20.118;2022-09-27T04:10:14;24.60;;;18.10;;
35847;SDS011;22332;51.954;20.118;2022-09-27T04:13:20;26.50;;;18.90;;
35847;SDS011;22332;51.954;20.118;2022-09-27T04:16:29;25.90;;;17.80;;
35847;SDS011;22332;51.954;20.118;2022-09-27T04:19:58;24.80;;;16.90;;
35847;SDS011;22332;51.954;20.118;2022-09-27T04:23:06;25.60;;;17.30;;
35847;SDS011;22332;51.954;20.118;2022-09-27T04:26:14;25.50;;;17.00;;
35847;SDS011;22332;51.954;20.118;2022-09-27T04:29:35;24.90;;;16.80;;
35847;SDS011;22332;51.954;20.118;2022-09-27T04:32:54;28.20;;;19.10;;
35847;SDS011;22332;51.954;20.118;2022-09-27T04:36:31;27.10;;;18.20;;
35847;SDS011;22332;51.954;20.118;2022-09-27T04:39:52;26.40;;;17.50;;
35847;SDS011;22332;51.954;20.118;2022-09-27T04:42:57;25.60;;;17.30;;
35847;SDS011;22332;51.954;20.118;2022-09-27T04:46:03;27.50;;;18.50;;
35847;SDS011;22332;51.954;20.118;2022-09-27T04:49:09;26.90;;;18.60;;
35847;SDS011;22332;51.954;20.118;2022-09-27T04:52:15;28.40;;;19.60;;
35847;SDS011;22332;51.954;20.118;2022-09-27T04:55:21;28.70;;;19.50;;
35847;SDS011;22332;51.954;20.118;2022-09-27T04:58:26;28.30;;;18.60;;
35847;SDS011;22332;51.954;20.118;2022-09-27T05:01:33;26.30;;;17.10;;
35847;SDS011;22332;51.954;20.118;2022-09-27T05:04:48;32.30;;;21.20;;
35847;SDS011;22332;51.954;20.118;2022-09-27T05:07:55;32.20;;;21.10;;
35847;SDS011;22332;51.954;20.118;2022-09-27T05:11:12;31.60;;;20.80;;
35847;SDS011;22332;51.954;20.118;2022-09-27T05:14:20;32.10;;;20.30;;
35847;SDS011;22332;51.954;20.118;2022-09-27T05:20:59;35.80;;;21.20;;
35847;SDS011;22332;51.954;20.118;2022-09-27T05:24:40;32.10;;;19.40;;
35847;SDS011;22332;51.954;20.118;2022-09-27T05:27:52;31.60;;;19.30;;
35847;SDS011;22332;51.954;20.118;2022-09-27T05:30:59;40.20;;;25.20;;
35847;SDS011;22332;51.954;20.118;2022-09-27T05:34:06;36.70;;;22.70;;
35847;SDS011;22332;51.954;20.118;2022-09-27T05:37:17;32.70;;;21.40;;
35847;SDS011;22332;51.954;20.118;2022-09-27T05:40:23;32.50;;;20.80;;
35847;SDS011;22332;51.954;20.118;2022-09-27T05:43:30;28.80;;;18.40;;
35847;SDS011;22332;51.954;20.118;2022-09-27T05:46:37;30.30;;;18.50;;
35847;SDS011;22332;51.954;20.118;2022-09-27T05:49:43;30.70;;;20.10;;
35847;SDS011;22332;51.954;20.118;2022-09-27T05:52:49;30.90;;;20.40;;
35847;SDS011;22332;51.954;20.118;2022-09-27T05:55:59;28.80;;;19.50;;
35847;SDS011;22332;51.954;20.118;2022-09-27T05:59:12;30.70;;;19.90;;
35847;SDS011;22332;51.954;20.118;2022-09-27T06:02:36;28.20;;;17.00;;
35847;SDS011;22332;51.954;20.118;2022-09-27T06:06:01;24.70;;;16.30;;
35847;SDS011;22332;51.954;20.118;2022-09-27T06:09:11;27.90;;;17.80;;
35847;SDS011;22332;51.954;20.118;2022-09-27T06:12:20;25.80;;;16.80;;
35847;SDS011;22332;51.954;20.118;2022-09-27T06:15:25;26.60;;;16.40;;
35847;SDS011;22332;51.954;20.118;2022-09-27T06:18:31;24.30;;;16.40;;
35847;SDS011;22332;51.954;20.118;2022-09-27T06:21:37;26.50;;;16.80;;
35847;SDS011;22332;51.954;20.118;2022-09-27T06:24:42;25.00;;;15.70;;
35847;SDS011;22332;51.954;20.118;2022-09-27T06:27:56;20.70;;;12.60;;
35847;SDS011;22332;51.954;20.118;2022-09-27T06:31:05;21.50;;;13.90;;
35847;SDS011;22332;51.954;20.118;2022-09-27T06:34:23;22.80;;;15.40;;
35847;SDS011;22332;51.954;20.118;2022-09-27T06:37:29;20.30;;;13.80;;
35847;SDS011;22332;51.954;20.118;2022-09-27T06:40:34;21.80;;;14.20;;
35847;SDS011;22332;51.954;20.118;2022-09-27T06:43:54;20.60;;;13.80;;
35847;SDS011;22332;51.954;20.118;2022-09-27T06:47:18;18.90;;;12.00;;
35847;SDS011;22332;51.954;20.118;2022-09-27T06:50:45;17.80;;;10.90;;
35847;SDS011;22332;51.954;20.118;2022-09-27T06:53:51;19.30;;;13.00;;
35847;SDS011;22332;51.954;20.118;2022-09-27T06:56:57;18.70;;;12.20;;
35847;SDS011;22332;51.954;20.118;2022-09-27T07:00:03;19.10;;;13.00;;
35847;SDS011;22332;51.954;20.118;2022-09-27T07:03:54;16.50;;;11.50;;
35847;SDS011;22332;51.954;20.118;2022-09-27T07:07:25;18.10;;;11.90;;
35847;SDS011;22332;51.954;20.118;2022-09-27T07:10:33;20.10;;;12.90;;
35847;SDS011;22332;51.954;20.118;2022-09-27T07:13:39;17.90;;;11.70;;
35847;SDS011;22332;51.954;20.118;2022-09-27T07:16:45;17.60;;;12.40;;
35847;SDS011;22332;51.954;20.118;2022-09-27T07:19:51;20.40;;;13.60;;
35847;SDS011;22332;51.954;20.118;2022-09-27T07:22:57;20.70;;;14.60;;
35847;SDS011;22332;51.954;20.118;2022-09-27T07:26:03;20.20;;;14.40;;
35847;SDS011;22332;51.954;20.118;2022-09-27T07:29:12;19.20;;;14.10;;
35847;SDS011;22332;51.954;20.118;2022-09-27T07:32:18;18.80;;;12.70;;
35847;SDS011;22332;51.954;20.118;2022-09-27T07:35:24;18.10;;;13.20;;
35847;SDS011;22332;51.954;20.118;2022-09-27T07:38:30;18.00;;;13.50;;
35847;SDS011;22332;51.954;20.118;2022-09-27T07:41:36;18.70;;;13.10;;
35847;SDS011;22332;51.954;20.118;2022-09-27T07:44:42;17.40;;;12.80;;
35847;SDS011;22332;51.954;20.118;2022-09-27T07:48:11;20.40;;;14.70;;
35847;SDS011;22332;51.954;20.118;2022-09-27T07:51:50;20.90;;;15.50;;
35847;SDS011;22332;51.954;20.118;2022-09-27T07:55:09;20.80;;;14.60;;
35847;SDS011;22332;51.954;20.118;2022-09-27T07:58:28;19.10;;;14.30;;
35847;SDS011;22332;51.954;20.118;2022-09-27T08:01:37;20.30;;;15.60;;
35847;SDS011;22332;51.954;20.118;2022-09-27T08:04:43;21.20;;;16.30;;
35847;SDS011;22332;51.954;20.118;2022-09-27T08:07:52;23.80;;;16.30;;
35847;SDS011;22332;51.954;20.118;2022-09-27T08:11:00;22.50;;;16.90;;
35847;SDS011;22332;51.954;20.118;2022-09-27T08:14:13;23.50;;;17.90;;
35847;SDS011;22332;51.954;20.118;2022-09-27T08:17:22;23.30;;;18.00;;
35847;SDS011;22332;51.954;20.118;2022-09-27T08:20:40;24.10;;;17.60;;
35847;SDS011;22332;51.954;20.118;2022-09-27T08:24:18;22.70;;;17.40;;
35847;SDS011;22332;51.954;20.118;2022-09-27T08:28:03;21.60;;;17.00;;
35847;SDS011;22332;51.954;20.118;2022-09-27T08:31:25;22.80;;;18.10;;
35847;SDS011;22332;51.954;20.118;2022-09-27T08:34:32;23.30;;;17.80;;
35847;SDS011;22332;51.954;20.118;2022-09-27T08:37:38;27.10;;;20.40;;
35847;SDS011;22332;51.954;20.118;2022-09-27T08:40:48;25.20;;;19.50;;
35847;SDS011;22332;51.954;20.118;2022-09-27T08:44:01;23.90;;;18.50;;
35847;SDS011;22332;51.954;20.118;2022-09-27T08:47:26;23.10;;;18.20;;
35847;SDS011;22332;51.954;20.118;2022-09-27T08:53:50;24.40;;;16.70;;
35847;SDS011;22332;51.954;20.118;2022-09-27T08:57:03;21.40;;;17.50;;
35847;SDS011;22332;51.954;20.118;2022-09-27T09:00:14;24.90;;;17.80;;
35847;SDS011;22332;51.954;20.118;2022-09-27T09:03:21;21.00;;;17.20;;
35847;SDS011;22332;51.954;20.118;2022-09-27T09:06:32;20.70;;;17.20;;
35847;SDS011;22332;51.954;20.118;2022-09-27T09:09:46;22.00;;;17.10;;
35847;SDS011;22332;51.954;20.118;2022-09-27T09:13:01;22.70;;;17.60;;
35847;SDS011;22332;51.954;20.118;2022-09-27T09:16:23;22.00;;;17.90;;
35847;SDS011;22332;51.954;20.118;2022-09-27T09:19:50;22.80;;;17.70;;
35847;SDS011;22332;51.954;20.118;2022-09-27T09:23:20;21.50;;;16.70;;
35847;SDS011;22332;51.954;20.118;2022-09-27T09:26:41;20.90;;;16.20;;
35847;SDS011;22332;51.954;20.118;2022-09-27T09:33:25;19.50;;;16.30;;
35847;SDS011;22332;51.954;20.118;2022-09-27T09:36:36;19.30;;;16.00;;
35847;SDS011;22332;51.954;20.118;2022-09-27T09:39:46;17.90;;;14.70;;
35847;SDS011;22332;51.954;20.118;2022-09-27T09:42:57;17.20;;;14.60;;
35847;SDS011;22332;51.954;20.118;2022-09-27T09:46:09;17.40;;;14.50;;
35847;SDS011;22332;51.954;20.118;2022-09-27T09:49:20;19.20;;;15.10;;
35847;SDS011;22332;51.954;20.118;2022-09-27T09:52:35;15.70;;;12.70;;
35847;SDS011;22332;51.954;20.118;2022-09-27T09:55:47;15.50;;;12.60;;
35847;SDS011;22332;51.954;20.118;2022-09-27T09:59:00;15.20;;;12.40;;
35847;SDS011;22332;51.954;20.118;2022-09-27T10:02:18;14.50;;;12.30;;
35847;SDS011;22332;51.954;20.118;2022-09-27T10:05:33;14.50;;;12.30;;
35847;SDS011;22332;51.954;20.118;2022-09-27T10:08:43;13.30;;;11.60;;
35847;SDS011;22332;51.954;20.118;2022-09-27T10:12:01;13.50;;;11.50;;
35847;SDS011;22332;51.954;20.118;2022-09-27T10:15:11;14.70;;;11.70;;
35847;SDS011;22332;51.954;20.118;2022-09-27T10:18:19;14.20;;;11.60;;
35847;SDS011;22332;51.954;20.118;2022-09-27T10:21:28;14.60;;;11.70;;
35847;SDS011;22332;51.954;20.118;2022-09-27T10:24:51;12.50;;;10.70;;
35847;SDS011;22332;51.954;20.118;2022-09-27T10:28:31;11.40;;;10.20;;
35847;SDS011;22332;51.954;20.118;2022-09-27T10:31:39;12.10;;;10.80;;
35847;SDS011;22332;51.954;20.118;2022-09-27T10:34:54;12.90;;;11.20;;
35847;SDS011;22332;51.954;20.118;2022-09-27T10:38:24;13.20;;;11.30;;
35847;SDS011;22332;51.954;20.118;2022-09-27T10:41:36;13.90;;;11.80;;
35847;SDS011;22332;51.954;20.118;2022-09-27T10:44:54;13.70;;;10.50;;
35847;SDS011;22332;51.954;20.118;2022-09-27T10:48:23;11.10;;;10.00;;
35847;SDS011;22332;51.954;20.118;2022-09-27T10:51:30;11.70;;;9.90;;
35847;SDS011;22332;51.954;20.118;2022-09-27T10:54:39;11.10;;;9.90;;
35847;SDS011;22332;51.954;20.118;2022-09-27T10:57:48;11.80;;;10.20;;
35847;SDS011;22332;51.954;20.118;2022-09-27T11:00:57;11.90;;;10.60;;
35847;SDS011;22332;51.954;20.118;2022-09-27T11:04:05;10.70;;;9.60;;
35847;SDS011;22332;51.954;20.118;2022-09-27T11:07:20;10.40;;;9.20;;
35847;SDS011;22332;51.954;20.118;2022-09-27T11:10:33;12.90;;;9.60;;
35847;SDS011;22332;51.954;20.118;2022-09-27T11:13:40;10.20;;;9.10;;
35847;SDS011;22332;51.954;20.118;2022-09-27T11:17:03;10.70;;;9.60;;
35847;SDS011;22332;51.954;20.118;2022-09-27T11:20:20;10.50;;;9.30;;
35847;SDS011;22332;51.954;20.118;2022-09-27T11:23:36;10.10;;;9.00;;
35847;SDS011;22332;51.954;20.118;2022-09-27T11:26:59;10.50;;;9.40;;
35847;SDS011;22332;51.954;20.118;2022-09-27T11:30:14;10.10;;;9.10;;
35847;SDS011;22332;51.954;20.118;2022-09-27T11:33:52;12.00;;;10.70;;
35847;SDS011;22332;51.954;20.118;2022-09-27T11:40:22;11.10;;;10.00;;
35847;SDS011;22332;51.954;20.118;2022-09-27T11:43:37;11.30;;;10.10;;
35847;SDS011;22332;51.954;20.118;2022-09-27T11:47:03;12.50;;;10.90;;
35847;SDS011;22332;51.954;20.118;2022-09-27T11:50:29;12.00;;;10.60;;
35847;SDS011;22332;51.954;20.118;2022-09-27T11:53:57;13.00;;;10.90;;
35847;SDS011;22332;51.954;20.118;2022-09-27T11:57:19;12.40;;;11.10;;
35847;SDS011;22332;51.954;20.118;2022-09-27T12:00:33;11.30;;;9.80;;
35847;SDS011;22332;51.954;20.118;2022-09-27T12:07:39;10.90;;;9.80;;
35847;SDS011;22332;51.954;20.118;2022-09-27T12:10:56;12.30;;;10.20;;
35847;SDS011;22332;51.954;20.118;2022-09-27T12:14:13;12.50;;;11.20;;
35847;SDS011;22332;51.954;20.118;2022-09-27T12:17:23;11.50;;;10.30;;
35847;SDS011;22332;51.954;20.118;2022-09-27T12:20:33;12.70;;;11.40;;
35847;SDS011;22332;51.954;20.118;2022-09-27T12:23:42;12.90;;;11.50;;
35847;SDS011;22332;51.954;20.118;2022-09-27T12:27:09;14.00;;;11.90;;
35847;SDS011;22332;51.954;20.118;2022-09-27T12:30:19;13.00;;;11.70;;
35847;SDS011;22332;51.954;20.118;2022-09-27T12:33:27;12.70;;;11.20;;
35847;SDS011;22332;51.954;20.118;2022-09-27T12:36:40;14.20;;;12.20;;
35847;SDS011;22332;51.954;20.118;2022-09-27T12:39:53;13.20;;;11.60;;
35847;SDS011;22332;51.954;20.118;2022-09-27T12:43:10;13.00;;;11.70;;
35847;SDS011;22332;51.954;20.118;2022-09-27T12:46:58;11.50;;;10.30;;
35847;SDS011;22332;51.954;20.118;2022-09-27T12:50:13;13.60;;;11.20;;
35847;SDS011;22332;51.954;20.118;2022-09-27T12:53:26;12.20;;;11.00;;
35847;SDS011;22332;51.954;20.118;2022-09-27T12:56:41;12.10;;;10.70;;
35847;SDS011;22332;51.954;20.118;2022-09-27T12:59:57;12.30;;;11.00;;
35847;SDS011;22332;51.954;20.118;2022-09-27T13:03:22;13.80;;;11.20;;
35847;SDS011;22332;51.954;20.118;2022-09-27T13:06:49;13.10;;;11.80;;
35847;SDS011;22332;51.954;20.118;2022-09-27T13:13:59;13.20;;;11.70;;
35847;SDS011;22332;51.954;20.118;2022-09-27T13:17:07;14.10;;;11.60;;
35847;SDS011;22332;51.954;20.118;2022-09-27T13:20:39;13.20;;;11.80;;
35847;SDS011;22332;51.954;20.118;2022-09-27T13:24:29;15.20;;;12.10;;
35847;SDS011;22332;51.954;20.118;2022-09-27T13:27:44;13.70;;;10.80;;
35847;SDS011;22332;51.954;20.118;2022-09-27T13:30:58;12.70;;;11.40;;
35847;SDS011;22332;51.954;20.118;2022-09-27T13:34:10;12.60;;;11.00;;
35847;SDS011;22332;51.954;20.118;2022-09-27T13:37:38;12.20;;;10.60;;
35847;SDS011;22332;51.954;20.118;2022-09-27T13:40:56;11.90;;;10.60;;
35847;SDS011;22332;51.954;20.118;2022-09-27T13:44:25;13.20;;;11.80;;
35847;SDS011;22332;51.954;20.118;2022-09-27T13:47:44;13.50;;;12.10;;
35847;SDS011;22332;51.954;20.118;2022-09-27T13:51:02;14.40;;;12.90;;
35847;SDS011;22332;51.954;20.118;2022-09-27T13:54:38;14.30;;;12.40;;
35847;SDS011;22332;51.954;20.118;2022-09-27T13:57:53;15.70;;;12.70;;
35847;SDS011;22332;51.954;20.118;2022-09-27T14:01:04;15.20;;;12.90;;
35847;SDS011;22332;51.954;20.118;2022-09-27T14:04:18;14.70;;;12.60;;
35847;SDS011;22332;51.954;20.118;2022-09-27T14:07:29;14.00;;;12.50;;
35847;SDS011;22332;51.954;20.118;2022-09-27T14:10:43;13.50;;;11.80;;
35847;SDS011;22332;51.954;20.118;2022-09-27T14:13:49;12.40;;;11.00;;
35847;SDS011;22332;51.954;20.118;2022-09-27T14:20:05;14.50;;;13.00;;
35847;SDS011;22332;51.954;20.118;2022-09-27T14:23:33;14.00;;;12.20;;
35847;SDS011;22332;51.954;20.118;2022-09-27T14:26:40;13.20;;;11.70;;
35847;SDS011;22332;51.954;20.118;2022-09-27T14:29:47;13.70;;;12.30;;
35847;SDS011;22332;51.954;20.118;2022-09-27T14:32:58;13.30;;;11.90;;
35847;SDS011;22332;51.954;20.118;2022-09-27T14:39:53;14.10;;;12.00;;
35847;SDS011;22332;51.954;20.118;2022-09-27T14:43:10;13.70;;;12.20;;
35847;SDS011;22332;51.954;20.118;2022-09-27T14:46:29;13.20;;;11.10;;
35847;SDS011;22332;51.954;20.118;2022-09-27T14:49:35;13.40;;;11.90;;
35847;SDS011;22332;51.954;20.118;2022-09-27T14:52:48;12.80;;;11.50;;
35847;SDS011;22332;51.954;20.118;2022-09-27T14:55:58;13.80;;;12.30;;
35847;SDS011;22332;51.954;20.118;2022-09-27T14:59:10;15.00;;;13.40;;
35847;SDS011;22332;51.954;20.118;2022-09-27T15:02:19;18.10;;;14.10;;
35847;SDS011;22332;51.954;20.118;2022-09-27T15:05:28;16.20;;;14.00;;
35847;SDS011;22332;51.954;20.118;2022-09-27T15:08:36;15.00;;;13.50;;
35847;SDS011;22332;51.954;20.118;2022-09-27T15:11:43;15.00;;;13.40;;
35847;SDS011;22332;51.954;20.118;2022-09-27T15:14:54;14.40;;;12.80;;
35847;SDS011;22332;51.954;20.118;2022-09-27T15:18:01;14.20;;;12.60;;
35847;SDS011;22332;51.954;20.118;2022-09-27T15:21:27;14.80;;;13.20;;
35847;SDS011;22332;51.954;20.118;2022-09-27T15:24:39;15.20;;;13.10;;
35847;SDS011;22332;51.954;20.118;2022-09-27T15:27:48;16.20;;;14.00;;
35847;SDS011;22332;51.954;20.118;2022-09-27T15:30:56;18.80;;;14.70;;
35847;SDS011;22332;51.954;20.118;2022-09-27T15:34:02;20.40;;;15.70;;
35847;SDS011;22332;51.954;20.118;2022-09-27T15:37:09;16.40;;;14.00;;
35847;SDS011;22332;51.954;20.118;2022-09-27T15:44:02;20.30;;;14.10;;
35847;SDS011;22332;51.954;20.118;2022-09-27T15:47:43;16.90;;;13.00;;
35847;SDS011;22332;51.954;20.118;2022-09-27T15:50:52;17.70;;;14.80;;
35847;SDS011;22332;51.954;20.118;2022-09-27T15:53:57;18.90;;;15.40;;
35847;SDS011;22332;51.954;20.118;2022-09-27T15:57:03;17.60;;;15.60;;
35847;SDS011;22332;51.954;20.118;2022-09-27T16:00:13;20.20;;;15.40;;
35847;SDS011;22332;51.954;20.118;2022-09-27T16:03:20;19.80;;;15.70;;
35847;SDS011;22332;51.954;20.118;2022-09-27T16:06:27;18.30;;;15.90;;
35847;SDS011;22332;51.954;20.118;2022-09-27T16:09:34;17.70;;;14.80;;
35847;SDS011;22332;51.954;20.118;2022-09-27T16:12:39;18.90;;;14.60;;
35847;SDS011;22332;51.954;20.118;2022-09-27T16:15:46;17.00;;;14.10;;
35847;SDS011;22332;51.954;20.118;2022-09-27T16:18:52;20.80;;;15.80;;
35847;SDS011;22332;51.954;20.118;2022-09-27T16:21:57;20.80;;;16.30;;
35847;SDS011;22332;51.954;20.118;2022-09-27T16:25:05;19.80;;;16.40;;
35847;SDS011;22332;51.954;20.118;2022-09-27T16:28:11;22.10;;;17.50;;
35847;SDS011;22332;51.954;20.118;2022-09-27T16:31:17;21.40;;;17.60;;
35847;SDS011;22332;51.954;20.118;2022-09-27T16:34:22;20.10;;;15.60;;
35847;SDS011;22332;51.954;20.118;2022-09-27T16:37:28;17.90;;;14.70;;
35847;SDS011;22332;51.954;20.118;2022-09-27T16:40:33;18.00;;;14.80;;
35847;SDS011;22332;51.954;20.118;2022-09-27T16:43:40;19.80;;;15.80;;
35847;SDS011;22332;51.954;20.118;2022-09-27T16:46:47;20.10;;;16.00;;
35847;SDS011;22332;51.954;20.118;2022-09-27T16:49:52;18.00;;;15.90;;
35847;SDS011;22332;51.954;20.118;2022-09-27T16:53:15;16.70;;;14.50;;
35847;SDS011;22332;51.954;20.118;2022-09-27T16:56:21;17.70;;;13.70;;
35847;SDS011;22332;51.954;20.118;2022-09-27T16:59:26;15.00;;;12.40;;
35847;SDS011;22332;51.954;20.118;2022-09-27T17:02:32;16.70;;;13.20;;
35847;SDS011;22332;51.954;20.118;2022-09-27T17:05:37;16.90;;;14.10;;
35847;SDS011;22332;51.954;20.118;2022-09-27T17:08:43;42.70;;;28.50;;
35847;SDS011;22332;51.954;20.118;2022-09-27T17:11:49;52.20;;;33.30;;
35847;SDS011;22332;51.954;20.118;2022-09-27T17:14:54;95.70;;;66.60;;
35847;SDS011;22332;51.954;20.118;2022-09-27T17:18:00;96.60;;;70.00;;
35847;SDS011;22332;51.954;20.118;2022-09-27T17:21:07;26.60;;;21.70;;
35847;SDS011;22332;51.954;20.118;2022-09-27T17:24:13;30.10;;;20.60;;
35847;SDS011;22332;51.954;20.118;2022-09-27T17:27:19;29.70;;;23.70;;
35847;SDS011;22332;51.954;20.118;2022-09-27T17:30:25;20.90;;;17.20;;
35847;SDS011;22332;51.954;20.118;2022-09-27T17:33:30;25.30;;;20.00;;
35847;SDS011;22332;51.954;20.118;2022-09-27T17:36:37;29.40;;;23.20;;
35847;SDS011;22332;51.954;20.118;2022-09-27T17:39:44;24.60;;;20.30;;
35847;SDS011;22332;51.954;20.118;2022-09-27T17:42:50;30.70;;;26.80;;
35847;SDS011;22332;51.954;20.118;2022-09-27T17:45:55;22.10;;;17.40;;
35847;SDS011;22332;51.954;20.118;2022-09-27T17:49:03;17.80;;;14.60;;
35847;SDS011;22332;51.954;20.118;2022-09-27T17:52:26;25.00;;;21.70;;
35847;SDS011;22332;51.954;20.118;2022-09-27T17:55:32;26.30;;;23.20;;
35847;SDS011;22332;51.954;20.118;2022-09-27T17:58:38;21.80;;;18.30;;
35847;SDS011;22332;51.954;20.118;2022-09-27T18:01:47;20.40;;;18.00;;
35847;SDS011;22332;51.954;20.118;2022-09-27T18:04:52;20.80;;;16.60;;
35847;SDS011;22332;51.954;20.118;2022-09-27T18:07:58;15.00;;;11.80;;
35847;SDS011;22332;51.954;20.118;2022-09-27T18:11:06;12.50;;;10.70;;
35847;SDS011;22332;51.954;20.118;2022-09-27T18:14:13;17.00;;;13.00;;
35847;SDS011;22332;51.954;20.118;2022-09-27T18:17:19;18.40;;;14.90;;
35847;SDS011;22332;51.954;20.118;2022-09-27T18:20:24;18.60;;;15.60;;
35847;SDS011;22332;51.954;20.118;2022-09-27T18:23:31;16.80;;;13.00;;
35847;SDS011;22332;51.954;20.118;2022-09-27T18:26:36;16.70;;;12.00;;
35847;SDS011;22332;51.954;20.118;2022-09-27T18:29:42;12.80;;;10.50;;
35847;SDS011;22332;51.954;20.118;2022-09-27T18:32:47;20.80;;;12.90;;
35847;SDS011;22332;51.954;20.118;2022-09-27T18:35:53;28.80;;;18.30;;
35847;SDS011;22332;51.954;20.118;2022-09-27T18:38:59;25.10;;;16.60;;
35847;SDS011;22332;51.954;20.118;2022-09-27T18:42:06;21.00;;;15.90;;
35847;SDS011;22332;51.954;20.118;2022-09-27T18:45:12;15.70;;;13.70;;
35847;SDS011;22332;51.954;20.118;2022-09-27T18:48:17;11.70;;;9.30;;
35847;SDS011;22332;51.954;20.118;2022-09-27T18:51:24;13.10;;;10.60;;
35847;SDS011;22332;51.954;20.118;2022-09-27T18:54:31;13.70;;;11.00;;
35847;SDS011;22332;51.954;20.118;2022-09-27T18:57:36;13.40;;;10.80;;
35847;SDS011;22332;51.954;20.118;2022-09-27T19:00:42;12.40;;;10.40;;
35847;SDS011;22332;51.954;20.118;2022-09-27T19:03:47;12.20;;;9.90;;
35847;SDS011;22332;51.954;20.118;2022-09-27T19:06:53;11.60;;;10.20;;
35847;SDS011;22332;51.954;20.118;2022-09-27T19:09:59;12.40;;;9.40;;